AZA1297 EIDW-LIRF
Flight info
| Callsign | AZA1297 |
|---|---|
| Flight time | N/A |
| Altitude | 33000 |
| Route | PESIT4E PESIT DCT BAKUR DCT GUBJE DCT DAVAZ DCT AVZAC DCT ICOSA DCT RUHUN DCT UNZIB DCT NUCHU DCT BOGNA UL612 RESMI/N0438F350 UL612 OGULO DCT OKASI DCT OKEKO DCT MOU DCT MADIV DCT MOKIP DCT TUFTA DCT KOGAS DCT MEDAM DCT NITAM DCT MOGBO DCT ELB/N0436F360 DCT ELKAP |
| Aircraft | MD82/M-SDFGIRWY/S |
Departure
| Time | N/A |
|---|---|
| Airport | Dublin Airport (EIDW) |
Arrival
| Time | 2026-05-04 12:46 |
|---|---|
| Airport | Rome–Fiumicino Leonardo da Vinci International Airport (LIRF) |
| Time | Latitude | Longitude | Altitude | Speed | Heading |
|---|---|---|---|---|---|
| 2026-05-04 10:44 | 51.06968 | -0.92575 | 33015 ft | 426 kts | 135° |
| 2026-05-04 10:45 | 51.05046 | -0.89004 | 33010 ft | 426 kts | 135° |
| 2026-05-04 10:45 | 51.01196 | -0.81853 | 33006 ft | 424 kts | 134° |
| 2026-05-04 10:46 | 50.97358 | -0.74746 | 33001 ft | 424 kts | 135° |
| 2026-05-04 10:46 | 50.93544 | -0.67703 | 33004 ft | 423 kts | 135° |
| 2026-05-04 10:47 | 50.89703 | -0.60712 | 33018 ft | 423 kts | 136° |
| 2026-05-04 10:47 | 50.85814 | -0.53729 | 33018 ft | 423 kts | 135° |
| 2026-05-04 10:49 | 50.70472 | -0.25684 | 33009 ft | 418 kts | 140° |
| 2026-05-04 10:50 | 50.65841 | -0.20388 | 33018 ft | 411 kts | 152° |
| 2026-05-04 10:52 | 50.47143 | -0.01189 | 33002 ft | 413 kts | 150° |
| 2026-05-04 10:52 | 50.42367 | 0.03796 | 33002 ft | 412 kts | 150° |
| 2026-05-04 10:54 | 50.24064 | 0.22716 | 33009 ft | 413 kts | 151° |
| 2026-05-04 10:56 | 50.04865 | 0.42445 | 33005 ft | 412 kts | 151° |
| 2026-05-04 10:57 | 50.00064 | 0.47351 | 33000 ft | 412 kts | 151° |
| 2026-05-04 10:57 | 49.95278 | 0.52236 | 33001 ft | 411 kts | 151° |
| 2026-05-04 10:58 | 49.90496 | 0.57106 | 32999 ft | 412 kts | 151° |
| 2026-05-04 10:58 | 49.85695 | 0.61994 | 32998 ft | 413 kts | 150° |
| 2026-05-04 10:59 | 49.81127 | 0.67488 | 32996 ft | 417 kts | 145° |
| 2026-05-04 10:59 | 49.76672 | 0.73261 | 32992 ft | 418 kts | 145° |
| 2026-05-04 11:00 | 49.72200 | 0.78985 | 32993 ft | 417 kts | 146° |
| 2026-05-04 11:02 | 49.54256 | 1.01371 | 32989 ft | 416 kts | 146° |
| 2026-05-04 11:05 | 49.20251 | 1.43160 | 32988 ft | 418 kts | 147° |
| 2026-05-04 11:06 | 49.15614 | 1.48827 | 32987 ft | 418 kts | 147° |
| 2026-05-04 11:06 | 49.11090 | 1.54331 | 32985 ft | 418 kts | 147° |
| 2026-05-04 11:08 | 48.95576 | 1.73036 | 33296 ft | 419 kts | 147° |
| 2026-05-04 11:10 | 48.79813 | 1.91955 | 34920 ft | 416 kts | 148° |
| 2026-05-04 11:12 | 48.61941 | 2.13214 | 34988 ft | 408 kts | 148° |
| 2026-05-04 11:12 | 48.57481 | 2.18502 | 34989 ft | 411 kts | 148° |
| 2026-05-04 11:13 | 48.53214 | 2.24423 | 34983 ft | 417 kts | 141° |
| 2026-05-04 11:13 | 48.49203 | 2.30671 | 34984 ft | 417 kts | 140° |
| 2026-05-04 11:14 | 48.45167 | 2.36926 | 34983 ft | 416 kts | 141° |
| 2026-05-04 11:16 | 48.28885 | 2.61438 | 34978 ft | 413 kts | 145° |
| 2026-05-04 11:16 | 48.26571 | 2.63842 | 34988 ft | 400 kts | 159° |
| 2026-05-04 11:16 | 48.24074 | 2.65614 | 34985 ft | 398 kts | 162° |
| 2026-05-04 11:17 | 48.19030 | 2.69122 | 34975 ft | 402 kts | 159° |
| 2026-05-04 11:19 | 47.99045 | 2.83726 | 34966 ft | 398 kts | 163° |
| 2026-05-04 11:19 | 47.93926 | 2.86896 | 34976 ft | 399 kts | 163° |
| 2026-05-04 11:20 | 47.88837 | 2.90105 | 34974 ft | 400 kts | 162° |
| 2026-05-04 11:20 | 47.83709 | 2.93367 | 34967 ft | 401 kts | 162° |
| 2026-05-04 11:22 | 47.63097 | 3.06382 | 34965 ft | 401 kts | 162° |
| 2026-05-04 11:23 | 47.57978 | 3.09593 | 34964 ft | 398 kts | 162° |
| 2026-05-04 11:25 | 47.40035 | 3.20731 | 34969 ft | 403 kts | 162° |
| 2026-05-04 11:25 | 47.34877 | 3.23938 | 34968 ft | 402 kts | 162° |
| 2026-05-04 11:27 | 47.11708 | 3.38227 | 34986 ft | 402 kts | 162° |
| 2026-05-04 11:28 | 47.06584 | 3.41349 | 34978 ft | 400 kts | 162° |
| 2026-05-04 11:28 | 47.01427 | 3.44503 | 34978 ft | 399 kts | 162° |
| 2026-05-04 11:29 | 46.96319 | 3.47620 | 34976 ft | 401 kts | 162° |
| 2026-05-04 11:29 | 46.91131 | 3.50776 | 35048 ft | 402 kts | 161° |
| 2026-05-04 11:33 | 46.66291 | 3.89408 | 34972 ft | 432 kts | 109° |
| 2026-05-04 11:33 | 46.64882 | 3.97880 | 34976 ft | 430 kts | 110° |
| 2026-05-04 11:34 | 46.63377 | 4.06295 | 34978 ft | 431 kts | 110° |
| 2026-05-04 11:34 | 46.61857 | 4.14740 | 34983 ft | 433 kts | 110° |
| 2026-05-04 11:35 | 46.60606 | 4.21794 | 34984 ft | 434 kts | 110° |
| 2026-05-04 11:35 | 46.59114 | 4.30288 | 34981 ft | 433 kts | 110° |
| 2026-05-04 11:36 | 46.57390 | 4.40119 | 34988 ft | 432 kts | 110° |
| 2026-05-04 11:36 | 46.56142 | 4.47211 | 34993 ft | 432 kts | 110° |
| 2026-05-04 11:37 | 46.54644 | 4.55680 | 34998 ft | 433 kts | 110° |
| 2026-05-04 11:37 | 46.53100 | 4.64146 | 35007 ft | 434 kts | 110° |
| 2026-05-04 11:38 | 46.51546 | 4.72651 | 35009 ft | 436 kts | 110° |
| 2026-05-04 11:38 | 46.50009 | 4.81108 | 35011 ft | 436 kts | 110° |
| 2026-05-04 11:39 | 46.48469 | 4.89629 | 35017 ft | 436 kts | 110° |
| 2026-05-04 11:41 | 46.43035 | 5.19396 | 35020 ft | 438 kts | 110° |
| 2026-05-04 11:41 | 46.41445 | 5.27923 | 35021 ft | 439 kts | 110° |
| 2026-05-04 11:42 | 46.39863 | 5.36462 | 35026 ft | 440 kts | 110° |
| 2026-05-04 11:42 | 46.37559 | 5.44477 | 35050 ft | 422 kts | 133° |
| 2026-05-04 11:43 | 46.33778 | 5.50919 | 35042 ft | 420 kts | 137° |
| 2026-05-04 11:43 | 46.29886 | 5.57247 | 35023 ft | 421 kts | 137° |
| 2026-05-04 11:44 | 46.26025 | 5.63628 | 35027 ft | 422 kts | 136° |
| 2026-05-04 11:44 | 46.22225 | 5.70041 | 35039 ft | 423 kts | 136° |
| 2026-05-04 11:45 | 46.18409 | 5.76524 | 35052 ft | 424 kts | 136° |
| 2026-05-04 11:45 | 46.14554 | 5.83050 | 35054 ft | 425 kts | 136° |
| 2026-05-04 11:46 | 46.10735 | 5.89479 | 35063 ft | 424 kts | 136° |
| 2026-05-04 11:46 | 46.06852 | 5.95948 | 35058 ft | 423 kts | 136° |
| 2026-05-04 11:47 | 46.03021 | 6.02303 | 35063 ft | 424 kts | 136° |
| 2026-05-04 11:47 | 45.99147 | 6.08739 | 35071 ft | 426 kts | 136° |
| 2026-05-04 11:48 | 45.95237 | 6.15245 | 35075 ft | 428 kts | 136° |
| 2026-05-04 11:48 | 45.91340 | 6.21721 | 35076 ft | 429 kts | 136° |
| 2026-05-04 11:49 | 45.87426 | 6.28208 | 35069 ft | 429 kts | 136° |
| 2026-05-04 11:49 | 45.83512 | 6.34687 | 35062 ft | 429 kts | 136° |
| 2026-05-04 11:50 | 45.79431 | 6.40754 | 35065 ft | 421 kts | 148° |
| 2026-05-04 11:50 | 45.74644 | 6.45548 | 35061 ft | 420 kts | 151° |
| 2026-05-04 11:51 | 45.69800 | 6.50275 | 35057 ft | 423 kts | 150° |
| 2026-05-04 11:51 | 45.64972 | 6.55105 | 35060 ft | 425 kts | 149° |
| 2026-05-04 11:52 | 45.60154 | 6.60012 | 35059 ft | 424 kts | 149° |
| 2026-05-04 11:52 | 45.55361 | 6.64912 | 35081 ft | 424 kts | 149° |
| 2026-05-04 11:53 | 45.50555 | 6.69785 | 35087 ft | 424 kts | 150° |
| 2026-05-04 11:53 | 45.45741 | 6.74650 | 35109 ft | 425 kts | 150° |
| 2026-05-04 11:55 | 45.26404 | 6.94082 | 35136 ft | 426 kts | 147° |
| 2026-05-04 11:56 | 45.22003 | 6.99820 | 35151 ft | 433 kts | 140° |
| 2026-05-04 11:56 | 45.17744 | 7.05895 | 35149 ft | 436 kts | 140° |
| 2026-05-04 11:57 | 45.13437 | 7.11958 | 35133 ft | 436 kts | 141° |
| 2026-05-04 11:57 | 45.09276 | 7.18214 | 35124 ft | 440 kts | 131° |
| 2026-05-04 11:58 | 45.05763 | 7.25358 | 35136 ft | 443 kts | 129° |
| 2026-05-04 11:58 | 45.02296 | 7.32582 | 35125 ft | 445 kts | 129° |
| 2026-05-04 11:59 | 44.98753 | 7.39780 | 35124 ft | 447 kts | 130° |
| 2026-05-04 11:59 | 44.94619 | 7.46195 | 35124 ft | 440 kts | 141° |
| 2026-05-04 12:00 | 44.90165 | 7.52152 | 35117 ft | 442 kts | 141° |
| 2026-05-04 12:00 | 44.85735 | 7.58175 | 35136 ft | 443 kts | 140° |
| 2026-05-04 12:01 | 44.81332 | 7.64301 | 35135 ft | 445 kts | 140° |
| 2026-05-04 12:02 | 44.66021 | 7.85639 | 35111 ft | 444 kts | 140° |
| 2026-05-04 12:03 | 44.61592 | 7.91711 | 35116 ft | 447 kts | 140° |
| 2026-05-04 12:03 | 44.57137 | 7.97826 | 35112 ft | 448 kts | 140° |
| 2026-05-04 12:04 | 44.52691 | 8.03941 | 35112 ft | 447 kts | 140° |
| 2026-05-04 12:04 | 44.48256 | 8.10037 | 35102 ft | 446 kts | 140° |
| 2026-05-04 12:05 | 44.43824 | 8.16118 | 35119 ft | 446 kts | 140° |
| 2026-05-04 12:05 | 44.39373 | 8.22195 | 35126 ft | 447 kts | 140° |
| 2026-05-04 12:06 | 44.34944 | 8.28217 | 35120 ft | 448 kts | 141° |
| 2026-05-04 12:06 | 44.30500 | 8.34224 | 35122 ft | 448 kts | 140° |
| 2026-05-04 12:07 | 44.26337 | 8.39856 | 35120 ft | 448 kts | 141° |
| 2026-05-04 12:07 | 44.21860 | 8.45914 | 35120 ft | 448 kts | 140° |
| 2026-05-04 12:08 | 44.17378 | 8.51966 | 35121 ft | 449 kts | 140° |
| 2026-05-04 12:08 | 44.12883 | 8.58034 | 35124 ft | 450 kts | 140° |
| 2026-05-04 12:09 | 44.08374 | 8.64102 | 35125 ft | 451 kts | 140° |
| 2026-05-04 12:09 | 44.03871 | 8.70117 | 35126 ft | 451 kts | 141° |
| 2026-05-04 12:10 | 43.99340 | 8.76145 | 35121 ft | 451 kts | 140° |
| 2026-05-04 12:10 | 43.94815 | 8.82175 | 35104 ft | 450 kts | 140° |
| 2026-05-04 12:11 | 43.90308 | 8.88180 | 35120 ft | 450 kts | 141° |
| 2026-05-04 12:11 | 43.85777 | 8.94205 | 35115 ft | 452 kts | 140° |
| 2026-05-04 12:12 | 43.81233 | 9.00236 | 35114 ft | 452 kts | 140° |
| 2026-05-04 12:12 | 43.76685 | 9.06256 | 35108 ft | 453 kts | 141° |
| 2026-05-04 12:14 | 43.58703 | 9.29846 | 35102 ft | 452 kts | 141° |
| 2026-05-04 12:15 | 43.54135 | 9.35826 | 35101 ft | 453 kts | 141° |
| 2026-05-04 12:15 | 43.49556 | 9.41808 | 35101 ft | 454 kts | 141° |
| 2026-05-04 12:16 | 43.44989 | 9.47746 | 35097 ft | 455 kts | 141° |
| 2026-05-04 12:16 | 43.40377 | 9.53703 | 35101 ft | 455 kts | 141° |
| 2026-05-04 12:17 | 43.35756 | 9.59676 | 35099 ft | 456 kts | 141° |
| 2026-05-04 12:17 | 43.31125 | 9.65665 | 35100 ft | 457 kts | 141° |
| 2026-05-04 12:18 | 43.26496 | 9.71642 | 35101 ft | 457 kts | 141° |
| 2026-05-04 12:18 | 43.21858 | 9.77622 | 35102 ft | 457 kts | 141° |
| 2026-05-04 12:19 | 43.17230 | 9.83574 | 35106 ft | 456 kts | 141° |
| 2026-05-04 12:19 | 43.12582 | 9.89504 | 35108 ft | 457 kts | 141° |
| 2026-05-04 12:20 | 43.07946 | 9.95401 | 35114 ft | 458 kts | 141° |
| 2026-05-04 12:20 | 43.03277 | 10.01351 | 35110 ft | 460 kts | 141° |
| 2026-05-04 12:21 | 42.98593 | 10.07320 | 35115 ft | 460 kts | 141° |
| 2026-05-04 12:21 | 42.93909 | 10.13277 | 35112 ft | 460 kts | 141° |
| 2026-05-04 12:22 | 42.90017 | 10.18217 | 35009 ft | 462 kts | 141° |
| 2026-05-04 12:22 | 42.87635 | 10.21230 | 34560 ft | 469 kts | 141° |
| 2026-05-04 12:22 | 42.85247 | 10.24249 | 33999 ft | 467 kts | 141° |
| 2026-05-04 12:23 | 42.82873 | 10.27256 | 33286 ft | 465 kts | 141° |
| 2026-05-04 12:23 | 42.80515 | 10.30254 | 32516 ft | 463 kts | 141° |
| 2026-05-04 12:23 | 42.78162 | 10.33249 | 31740 ft | 463 kts | 141° |
| 2026-05-04 12:23 | 42.75817 | 10.36261 | 30963 ft | 463 kts | 137° |
| 2026-05-04 12:24 | 42.73865 | 10.39764 | 30236 ft | 468 kts | 120° |
| 2026-05-04 12:24 | 42.72735 | 10.43883 | 29533 ft | 467 kts | 101° |
| 2026-05-04 12:24 | 42.72392 | 10.48269 | 28871 ft | 463 kts | 92° |
| 2026-05-04 12:24 | 42.72324 | 10.52622 | 28240 ft | 458 kts | 91° |
| 2026-05-04 12:25 | 42.72284 | 10.56925 | 27622 ft | 453 kts | 91° |
| 2026-05-04 12:25 | 42.72218 | 10.61174 | 27153 ft | 445 kts | 94° |
| 2026-05-04 12:25 | 42.71677 | 10.65225 | 26959 ft | 427 kts | 112° |
| 2026-05-04 12:25 | 42.70404 | 10.68822 | 26355 ft | 422 kts | 123° |
| 2026-05-04 12:26 | 42.68851 | 10.72196 | 25692 ft | 421 kts | 125° |
| 2026-05-04 12:26 | 42.67244 | 10.75527 | 25026 ft | 421 kts | 126° |
| 2026-05-04 12:26 | 42.65629 | 10.78840 | 24364 ft | 420 kts | 125° |
| 2026-05-04 12:26 | 42.64022 | 10.82153 | 23732 ft | 420 kts | 125° |
| 2026-05-04 12:27 | 42.62437 | 10.85475 | 22995 ft | 418 kts | 124° |
| 2026-05-04 12:27 | 42.60899 | 10.88763 | 22317 ft | 416 kts | 124° |
| 2026-05-04 12:27 | 42.59368 | 10.92083 | 21670 ft | 413 kts | 124° |
| 2026-05-04 12:27 | 42.57859 | 10.95378 | 21049 ft | 410 kts | 124° |
| 2026-05-04 12:28 | 42.56340 | 10.98698 | 20439 ft | 408 kts | 124° |
| 2026-05-04 12:28 | 42.54866 | 11.01916 | 19842 ft | 406 kts | 124° |
| 2026-05-04 12:28 | 42.53379 | 11.05157 | 19233 ft | 404 kts | 124° |
| 2026-05-04 12:28 | 42.51896 | 11.08380 | 18615 ft | 402 kts | 124° |
| 2026-05-04 12:29 | 42.50416 | 11.11584 | 17957 ft | 401 kts | 124° |
| 2026-05-04 12:29 | 42.48938 | 11.14776 | 17342 ft | 398 kts | 124° |
| 2026-05-04 12:29 | 42.47491 | 11.17887 | 17201 ft | 382 kts | 125° |
| 2026-05-04 12:29 | 42.46106 | 11.20871 | 17120 ft | 366 kts | 124° |
| 2026-05-04 12:30 | 42.44775 | 11.23735 | 17024 ft | 351 kts | 125° |
| 2026-05-04 12:30 | 42.43492 | 11.26480 | 16866 ft | 340 kts | 125° |
| 2026-05-04 12:30 | 42.42230 | 11.29186 | 16413 ft | 340 kts | 125° |
| 2026-05-04 12:30 | 42.40965 | 11.31882 | 15943 ft | 340 kts | 125° |
| 2026-05-04 12:31 | 42.39688 | 11.34586 | 15454 ft | 341 kts | 126° |
| 2026-05-04 12:31 | 42.38416 | 11.37286 | 14933 ft | 340 kts | 125° |
| 2026-05-04 12:31 | 42.37136 | 11.39994 | 14398 ft | 342 kts | 125° |
| 2026-05-04 12:31 | 42.35868 | 11.42715 | 13848 ft | 343 kts | 124° |
| 2026-05-04 12:32 | 42.34588 | 11.45454 | 13278 ft | 344 kts | 125° |
| 2026-05-04 12:32 | 42.32037 | 11.50865 | 12220 ft | 339 kts | 125° |
| 2026-05-04 12:32 | 42.30778 | 11.53538 | 11715 ft | 336 kts | 125° |
| 2026-05-04 12:33 | 42.29536 | 11.56177 | 11213 ft | 326 kts | 125° |
| 2026-05-04 12:33 | 42.28363 | 11.58677 | 10751 ft | 310 kts | 124° |
| 2026-05-04 12:33 | 42.27226 | 11.61107 | 10602 ft | 294 kts | 125° |
| 2026-05-04 12:33 | 42.26172 | 11.63354 | 10452 ft | 284 kts | 125° |
| 2026-05-04 12:34 | 42.25118 | 11.65599 | 10294 ft | 275 kts | 125° |
| 2026-05-04 12:34 | 42.24121 | 11.67722 | 10163 ft | 267 kts | 125° |
| 2026-05-04 12:34 | 42.23145 | 11.69799 | 10068 ft | 260 kts | 126° |
| 2026-05-04 12:34 | 42.22163 | 11.71879 | 9724 ft | 265 kts | 125° |
| 2026-05-04 12:35 | 42.21187 | 11.73982 | 9344 ft | 266 kts | 123° |
| 2026-05-04 12:35 | 42.20280 | 11.76167 | 8950 ft | 266 kts | 121° |
| 2026-05-04 12:35 | 42.19427 | 11.78375 | 8570 ft | 265 kts | 120° |
| 2026-05-04 12:35 | 42.18589 | 11.80585 | 8175 ft | 264 kts | 120° |
| 2026-05-04 12:36 | 42.17752 | 11.82791 | 7773 ft | 264 kts | 120° |
| 2026-05-04 12:36 | 42.16906 | 11.84993 | 7383 ft | 264 kts | 120° |
| 2026-05-04 12:36 | 42.16055 | 11.87192 | 7000 ft | 263 kts | 121° |
| 2026-05-04 12:36 | 42.15209 | 11.89373 | 6617 ft | 262 kts | 120° |
| 2026-05-04 12:37 | 42.14360 | 11.91544 | 6224 ft | 262 kts | 120° |
| 2026-05-04 12:37 | 42.13506 | 11.93714 | 5831 ft | 262 kts | 120° |
| 2026-05-04 12:37 | 42.12651 | 11.95893 | 5443 ft | 264 kts | 121° |
| 2026-05-04 12:37 | 42.11803 | 11.98045 | 4997 ft | 256 kts | 121° |
| 2026-05-04 12:38 | 42.10975 | 12.00139 | 4582 ft | 250 kts | 121° |
| 2026-05-04 12:38 | 42.10174 | 12.02171 | 4379 ft | 243 kts | 120° |
| 2026-05-04 12:38 | 42.09401 | 12.04148 | 4311 ft | 232 kts | 121° |
| 2026-05-04 12:38 | 42.08674 | 12.06012 | 4271 ft | 218 kts | 121° |
| 2026-05-04 12:39 | 42.07989 | 12.07772 | 4242 ft | 207 kts | 121° |
| 2026-05-04 12:39 | 42.07316 | 12.09477 | 4164 ft | 205 kts | 121° |
| 2026-05-04 12:39 | 42.06641 | 12.11156 | 4137 ft | 203 kts | 122° |
| 2026-05-04 12:39 | 42.05677 | 12.12431 | 4138 ft | 195 kts | 161° |
| 2026-05-04 12:40 | 42.04374 | 12.12925 | 4124 ft | 199 kts | 163° |
| 2026-05-04 12:40 | 42.03072 | 12.13538 | 4081 ft | 194 kts | 161° |
| 2026-05-04 12:40 | 42.01822 | 12.14112 | 4046 ft | 185 kts | 163° |
| 2026-05-04 12:40 | 42.00624 | 12.14611 | 4026 ft | 176 kts | 163° |
| 2026-05-04 12:41 | 41.99477 | 12.15081 | 3929 ft | 170 kts | 163° |
| 2026-05-04 12:41 | 41.98356 | 12.15562 | 3673 ft | 170 kts | 163° |
| 2026-05-04 12:41 | 41.97220 | 12.16034 | 3373 ft | 172 kts | 163° |
| 2026-05-04 12:41 | 41.96077 | 12.16519 | 3123 ft | 173 kts | 162° |
| 2026-05-04 12:42 | 41.94924 | 12.17008 | 2872 ft | 174 kts | 162° |
| 2026-05-04 12:42 | 41.93776 | 12.17501 | 2641 ft | 172 kts | 162° |
| 2026-05-04 12:42 | 41.92646 | 12.17976 | 2403 ft | 166 kts | 163° |
| 2026-05-04 12:42 | 41.91584 | 12.18418 | 2228 ft | 150 kts | 163° |
| 2026-05-04 12:43 | 41.90629 | 12.18820 | 2027 ft | 138 kts | 164° |
| 2026-05-04 12:43 | 41.89725 | 12.19200 | 1829 ft | 135 kts | 163° |
| 2026-05-04 12:43 | 41.88847 | 12.19568 | 1641 ft | 133 kts | 162° |
| 2026-05-04 12:43 | 41.87963 | 12.19956 | 1459 ft | 137 kts | 162° |
| 2026-05-04 12:44 | 41.87064 | 12.20316 | 1170 ft | 133 kts | 165° |
| 2026-05-04 12:44 | 41.86189 | 12.20672 | 957 ft | 131 kts | 162° |
| 2026-05-04 12:44 | 41.85340 | 12.21087 | 786 ft | 129 kts | 164° |
| 2026-05-04 12:44 | 41.84484 | 12.21437 | 628 ft | 130 kts | 166° |
| 2026-05-04 12:45 | 41.83621 | 12.21794 | 452 ft | 131 kts | 167° |
| 2026-05-04 12:45 | 41.82731 | 12.22155 | 276 ft | 137 kts | 165° |
| 2026-05-04 12:45 | 41.81829 | 12.22529 | 107 ft | 134 kts | 165° |
| 2026-05-04 12:45 | 41.80955 | 12.22889 | 18 ft | 124 kts | 163° |
| 2026-05-04 12:46 | 41.80217 | 12.23196 | 16 ft | 97 kts | 163° |
| 2026-05-04 12:46 | 41.79773 | 12.23395 | 17 ft | 48 kts | 158° |
| 2026-05-04 12:46 | 41.79504 | 12.23564 | 15 ft | 39 kts | 143° |
| 2026-05-04 12:46 | 41.79362 | 12.23747 | 15 ft | 17 kts | 132° |
| 2026-05-04 12:47 | 41.79318 | 12.23863 | 16 ft | 11 kts | 78° |
| 2026-05-04 12:47 | 41.79379 | 12.23877 | 16 ft | 10 kts | 342° |
| 2026-05-04 12:47 | 41.79450 | 12.23846 | 16 ft | 12 kts | 341° |
| 2026-05-04 12:47 | 41.79533 | 12.23809 | 15 ft | 14 kts | 342° |
| 2026-05-04 12:48 | 41.79628 | 12.23769 | 16 ft | 15 kts | 342° |
| 2026-05-04 12:48 | 41.79732 | 12.23725 | 15 ft | 16 kts | 342° |
| 2026-05-04 12:48 | 41.79826 | 12.23728 | 15 ft | 14 kts | 46° |
| 2026-05-04 12:48 | 41.79866 | 12.23851 | 15 ft | 15 kts | 70° |
| 2026-05-04 12:49 | 41.79903 | 12.23988 | 17 ft | 16 kts | 70° |
| 2026-05-04 12:49 | 41.79916 | 12.24140 | 15 ft | 17 kts | 86° |
| 2026-05-04 12:49 | 41.79949 | 12.24297 | 16 ft | 18 kts | 70° |
| 2026-05-04 12:49 | 41.79995 | 12.24464 | 15 ft | 20 kts | 69° |
| 2026-05-04 12:50 | 41.80043 | 12.24641 | 16 ft | 21 kts | 68° |
| 2026-05-04 12:50 | 41.80094 | 12.24823 | 14 ft | 21 kts | 70° |
| 2026-05-04 12:50 | 41.80106 | 12.25021 | 15 ft | 22 kts | 99° |
| 2026-05-04 12:50 | 41.80064 | 12.25218 | 15 ft | 22 kts | 112° |
| 2026-05-04 12:51 | 41.80003 | 12.25394 | 15 ft | 18 kts | 115° |
| 2026-05-04 12:51 | 41.79965 | 12.25504 | 16 ft | 9 kts | 119° |
| 2026-05-04 12:51 | 41.79912 | 12.25518 | 15 ft | 8 kts | 204° |
| 2026-05-04 12:51 | 41.79858 | 12.25486 | 15 ft | 9 kts | 203° |
| 2026-05-04 12:52 | 41.79814 | 12.25482 | 15 ft | 2 kts | 147° |
| 2026-05-04 12:52 | 41.79808 | 12.25490 | 15 ft | 2 kts | 131° |
| 2026-05-04 12:52 | 41.79799 | 12.25509 | 15 ft | 3 kts | 118° |
| 2026-05-04 12:52 | 41.79796 | 12.25517 | 15 ft | 0 kts | 117° |